Time;durP1;ratioP1;P1;durP2;ratioP2;P2;SDS_P1;SDS_P2;PMS_P1;PMS_P2;Temp;Humidity;BMP_temperature;BMP_pressure;BME280_temperature;BME280_humidity;BME280_pressure;Samples;Min_cycle;Max_cycle;Signal;HPM_P1;HPM_P2
2024/02/13 19:21:14;;;;;;;10.52;6.68;;;9.00;1.00;;;;;;5797212;23;20140;-80
2024/02/13 19:23:40;;;;;;;9.25;6.55;;;9.00;1.00;;;;;;4903253;29;20047;-81
2024/02/13 19:26:08;;;;;;;9.55;5.90;;;9.00;99.90;;;;;;4907866;29;20032;-81
2024/02/13 19:28:35;;;;;;;7.35;5.72;;;9.00;99.90;;;;;;4902639;29;20406;-80
2024/02/13 19:31:05;;;;;;;7.20;5.15;;;9.00;99.90;;;;;;4910917;29;20045;-80
2024/02/13 19:33:31;;;;;;;5.57;5.07;;;8.90;99.90;;;;;;4904122;29;20063;-80
2024/02/13 19:35:56;;;;;;;5.10;4.57;;;8.90;99.90;;;;;;4903771;29;20036;-81
2024/02/13 19:38:22;;;;;;;5.13;4.72;;;8.90;99.90;;;;;;4901326;29;20378;-80
2024/02/13 19:41:05;;;;;;;5.72;4.30;;;8.90;99.90;;;;;;4905329;29;20035;-81
2024/02/13 19:43:31;;;;;;;5.05;4.50;;;8.90;99.90;;;;;;4900071;29;20037;-80
2024/02/13 19:45:58;;;;;;;8.20;5.40;;;8.90;99.90;;;;;;4899237;29;20508;-80
2024/02/13 19:48:26;;;;;;;3.33;3.13;;;8.90;99.90;;;;;;4899608;29;20100;-80
2024/02/13 19:50:52;;;;;;;3.30;3.00;;;8.90;99.90;;;;;;4900936;29;20024;-80
2024/02/13 19:53:18;;;;;;;3.13;2.85;;;8.90;99.90;;;;;;4902371;29;20098;-80
2024/02/13 19:55:43;;;;;;;5.93;3.83;;;8.90;99.90;;;;;;4919938;29;20024;-80
2024/02/13 19:58:09;;;;;;;4.10;2.60;;;8.90;99.90;;;;;;4906493;29;20504;-79
2024/02/13 20:00:35;;;;;;;4.03;2.58;;;8.90;99.90;;;;;;4906246;29;20084;-79
2024/02/13 20:03:02;;;;;;;3.42;2.58;;;8.80;99.90;;;;;;4905068;29;20107;-78
2024/02/13 20:05:28;;;;;;;4.43;2.30;;;8.80;99.90;;;;;;4931917;28;20069;-80
2024/02/13 20:07:53;;;;;;;3.38;2.38;;;8.80;99.20;;;;;;4899040;29;20056;-79
2024/02/13 20:10:20;;;;;;;3.72;2.45;;;8.70;99.90;;;;;;4905299;29;20028;-78
2024/02/13 20:12:46;;;;;;;2.25;2.13;;;8.70;99.90;;;;;;4896581;29;20032;-78
2024/02/13 20:15:11;;;;;;;1.88;1.77;;;8.70;42.50;;;;;;4916725;29;20088;-79
2024/02/13 20:17:38;;;;;;;2.60;1.90;;;8.70;94.50;;;;;;4898880;29;20071;-79
2024/02/13 20:20:05;;;;;;;2.10;2.00;;;8.70;99.90;;;;;;4900369;29;20055;-79
2024/02/13 20:22:30;;;;;;;1.85;1.75;;;8.60;99.90;;;;;;4889805;29;20530;-79
2024/02/13 20:24:56;;;;;;;1.70;1.60;;;8.60;99.90;;;;;;4880241;29;20025;-79
2024/02/13 20:27:22;;;;;;;4.30;2.00;;;8.60;99.90;;;;;;4882796;29;20501;-79
2024/02/13 20:29:49;;;;;;;3.65;1.90;;;8.50;65.70;;;;;;4872189;29;20044;-79
2024/02/13 20:32:15;;;;;;;1.55;1.50;;;8.50;66.20;;;;;;4882620;29;20055;-79
2024/02/13 20:34:42;;;;;;;1.95;1.65;;;8.50;95.50;;;;;;4871728;29;20398;-79
2024/02/13 20:37:08;;;;;;;1.52;1.45;;;8.50;14.10;;;;;;4879816;29;20060;-79
2024/02/13 20:39:34;;;;;;;1.63;1.50;;;8.50;2.50;;;;;;4880088;29;20062;-79
2024/02/13 20:42:02;;;;;;;1.20;1.20;;;8.50;15.90;;;;;;4879738;29;20037;-79
2024/02/13 20:44:31;;;;;;;3.83;1.70;;;8.50;1.00;;;;;;4885047;29;20455;-79
2024/02/13 20:46:57;;;;;;;1.45;1.30;;;8.50;48.40;;;;;;4882129;29;20041;-79
2024/02/13 20:49:24;;;;;;;1.95;1.85;;;8.50;1.00;;;;;;4884179;29;20475;-79
2024/02/13 20:51:50;;;;;;;1.63;1.52;;;8.50;1.00;;;;;;4869231;29;20032;-79
2024/02/13 20:54:15;;;;;;;2.58;1.25;;;8.50;1.00;;;;;;4871066;29;20368;-79
2024/02/13 20:56:45;;;;;;;2.65;1.17;;;8.50;1.00;;;;;;4888962;29;20021;-79
2024/02/13 20:59:12;;;;;;;1.80;1.70;;;8.40;1.00;;;;;;4888145;29;20025;-79
2024/02/13 21:01:38;;;;;;;1.95;1.45;;;8.40;1.00;;;;;;4889026;29;20583;-79
2024/02/13 21:04:11;;;;;;;3.08;1.60;;;8.40;1.00;;;;;;4893259;29;20107;-79
2024/02/13 21:06:37;;;;;;;1.05;1.05;;;8.40;1.00;;;;;;4884284;29;20028;-80
2024/02/13 21:09:06;;;;;;;2.60;1.48;;;8.40;1.00;;;;;;4886675;29;20459;-79
2024/02/13 21:11:34;;;;;;;1.23;1.23;;;8.40;1.00;;;;;;4873513;29;20067;-81
2024/02/13 21:14:04;;;;;;;1.75;1.50;;;8.30;1.00;;;;;;4874459;29;20033;-80
2024/02/13 21:16:29;;;;;;;2.17;1.30;;;8.30;3.60;;;;;;4885030;29;20361;-79
2024/02/13 21:18:59;;;;;;;3.28;1.63;;;8.30;1.00;;;;;;4873749;29;20454;-80
2024/02/13 21:24:10;;;;;;;1.13;1.02;;;8.30;1.00;;;;;;4884991;29;20048;-79
2024/02/13 21:26:39;;;;;;;2.25;1.80;;;8.30;1.00;;;;;;4877090;29;20032;-78
2024/02/13 21:29:06;;;;;;;1.83;1.73;;;8.30;1.00;;;;;;4882703;29;20486;-78
2024/02/13 21:31:32;;;;;;;1.77;1.67;;;8.30;1.00;;;;;;4886126;29;20039;-78
2024/02/13 21:34:06;;;;;;;2.05;1.77;;;8.30;1.00;;;;;;4884716;29;20037;-79
2024/02/13 21:36:35;;;;;;;1.63;1.52;;;8.20;36.80;;;;;;4883402;29;20041;-78
2024/02/13 21:39:00;;;;;;;3.22;1.42;;;8.20;1.00;;;;;;4886896;29;20041;-78
2024/02/13 21:41:26;;;;;;;1.42;1.17;;;8.20;1.00;;;;;;4882820;29;20447;-77
2024/02/13 21:43:52;;;;;;;1.10;1.10;;;8.20;1.00;;;;;;4875684;29;20037;-77
2024/02/13 21:46:18;;;;;;;1.27;1.27;;;8.20;1.00;;;;;;4885284;29;20479;-77
2024/02/13 21:48:44;;;;;;;1.52;1.38;;;8.20;69.70;;;;;;4884109;29;20123;-77
2024/02/13 21:51:09;;;;;;;1.95;1.50;;;8.10;85.00;;;;;;4885050;29;20047;-78
2024/02/13 21:53:35;;;;;;;2.00;1.23;;;8.10;99.90;;;;;;4885496;29;20491;-78
2024/02/13 21:56:01;;;;;;;1.77;1.23;;;8.10;94.40;;;;;;4874790;29;20033;-78
2024/02/13 21:58:27;;;;;;;1.55;1.45;;;8.00;99.90;;;;;;4884364;29;20380;-79
2024/02/13 22:00:54;;;;;;;1.67;1.58;;;8.00;99.90;;;;;;4869454;29;20067;-78
2024/02/13 22:03:19;;;;;;;3.70;1.83;;;8.00;99.90;;;;;;4886147;29;20036;-77
2024/02/13 22:05:45;;;;;;;3.63;1.98;;;7.90;99.90;;;;;;4879519;29;20338;-78
2024/02/13 22:08:11;;;;;;;2.25;1.33;;;7.90;99.90;;;;;;4874092;29;20459;-79
2024/02/13 22:10:38;;;;;;;2.03;1.63;;;7.90;99.90;;;;;;4881855;29;20036;-79
2024/02/13 22:13:06;;;;;;;2.00;1.40;;;8.00;99.90;;;;;;4891056;29;20028;-77
2024/02/13 22:15:33;;;;;;;2.15;1.50;;;7.90;99.90;;;;;;4884607;29;20298;-79
2024/02/13 22:18:00;;;;;;;1.80;1.70;;;7.90;99.90;;;;;;4891544;29;20067;-78
2024/02/13 22:20:26;;;;;;;1.52;1.42;;;7.90;99.90;;;;;;4887835;29;20124;-77
2024/02/13 22:22:52;;;;;;;2.80;1.48;;;8.00;99.90;;;;;;4883418;29;20052;-77
2024/02/13 22:25:18;;;;;;;2.17;2.00;;;8.00;99.90;;;;;;4886212;29;20127;-77
2024/02/13 22:27:44;;;;;;;1.88;1.77;;;8.00;99.90;;;;;;4873516;29;20120;-77
2024/02/13 22:30:12;;;;;;;2.90;1.88;;;8.00;99.90;;;;;;4886996;29;20029;-77
2024/02/13 22:32:39;;;;;;;2.78;1.50;;;8.00;99.90;;;;;;4883329;29;20083;-77
2024/02/13 22:35:05;;;;;;;1.88;1.77;;;7.90;99.90;;;;;;4875264;29;20028;-77
2024/02/13 22:37:32;;;;;;;1.70;1.60;;;7.90;99.90;;;;;;4866227;29;20088;-78
2024/02/13 22:39:58;;;;;;;2.45;1.40;;;7.90;99.90;;;;;;4882230;29;20017;-77
2024/02/13 22:42:24;;;;;;;1.75;1.65;;;7.90;99.90;;;;;;4882029;29;20032;-78
2024/02/13 22:44:49;;;;;;;1.50;1.40;;;7.90;99.90;;;;;;4868627;29;20025;-78
2024/02/13 22:47:15;;;;;;;1.75;1.65;;;7.90;99.90;;;;;;4866242;29;20029;-78
2024/02/13 22:49:41;;;;;;;1.55;1.45;;;7.90;99.90;;;;;;4881315;29;20029;-78
2024/02/13 22:52:07;;;;;;;1.77;1.67;;;7.90;99.90;;;;;;4885458;29;20029;-78
2024/02/13 22:54:33;;;;;;;1.98;1.77;;;7.90;99.90;;;;;;4873114;29;20021;-78
2024/02/13 22:56:59;;;;;;;1.80;1.70;;;7.90;99.90;;;;;;4886164;29;20029;-78
2024/02/13 22:59:24;;;;;;;1.73;1.63;;;7.90;99.90;;;;;;4882147;29;20063;-78
2024/02/13 23:01:50;;;;;;;2.15;1.95;;;7.90;99.90;;;;;;4875669;29;20083;-78
2024/02/13 23:04:17;;;;;;;2.65;1.55;;;7.90;99.90;;;;;;4886328;29;20025;-78
2024/02/13 23:06:43;;;;;;;1.67;1.58;;;7.90;99.90;;;;;;4882906;29;20025;-78
2024/02/13 23:09:16;;;;;;;3.72;1.55;;;7.90;99.90;;;;;;4875820;29;20092;-77
2024/02/13 23:11:45;;;;;;;2.08;1.98;;;7.90;99.90;;;;;;4882513;29;20056;-77
2024/02/13 23:14:14;;;;;;;2.55;1.88;;;7.90;99.90;;;;;;4868267;29;20076;-78
2024/02/13 23:16:41;;;;;;;2.22;2.03;;;7.90;99.90;;;;;;4882769;29;20025;-77
2024/02/13 23:19:08;;;;;;;3.63;2.05;;;7.90;99.90;;;;;;4885642;29;20056;-78
2024/02/13 23:21:34;;;;;;;2.35;2.15;;;7.90;99.90;;;;;;4886387;29;20080;-77
2024/02/13 23:24:00;;;;;;;2.10;2.00;;;7.90;99.90;;;;;;4884267;29;20028;-77
2024/02/13 23:26:25;;;;;;;2.42;2.33;;;7.80;99.90;;;;;;4884076;29;20407;-77
2024/02/13 23:28:51;;;;;;;3.90;2.08;;;7.80;99.90;;;;;;4887846;29;20029;-77
2024/02/13 23:31:18;;;;;;;3.88;2.30;;;7.80;99.90;;;;;;4892198;29;20324;-77
2024/02/13 23:33:44;;;;;;;1.92;1.83;;;7.80;99.90;;;;;;4887229;29;20024;-77
2024/02/13 23:36:10;;;;;;;2.58;2.30;;;7.80;99.90;;;;;;4887655;29;20157;-77
2024/02/13 23:38:36;;;;;;;2.10;2.00;;;7.80;99.90;;;;;;4887213;29;20162;-78
2024/02/13 23:41:01;;;;;;;6.00;2.55;;;7.70;99.90;;;;;;4870939;29;20025;-79
2024/02/13 23:43:27;;;;;;;2.60;2.28;;;7.70;99.90;;;;;;4889220;29;20017;-78
2024/02/13 23:45:54;;;;;;;5.93;2.35;;;7.70;99.90;;;;;;4888506;29;20025;-78
2024/02/13 23:48:21;;;;;;;2.00;1.90;;;7.70;99.90;;;;;;4877770;29;20024;-78
2024/02/13 23:50:50;;;;;;;2.47;2.22;;;7.80;99.90;;;;;;4870966;29;20033;-78
2024/02/13 23:53:19;;;;;;;3.25;2.38;;;7.70;99.90;;;;;;4861418;29;20029;-77
2024/02/13 23:55:44;;;;;;;2.30;2.10;;;7.80;99.90;;;;;;4869108;29;20436;-78
2024/02/13 23:58:10;;;;;;;1.88;1.77;;;7.80;99.90;;;;;;4870219;29;20033;-77
